Time;durP1;ratioP1;P1;durP2;ratioP2;P2;SDS_P1;SDS_P2;PMS_P1;PMS_P2;Temp;Humidity;BMP_temperature;BMP_pressure;BME280_temperature;BME280_humidity;BME280_pressure;Samples;Min_cycle;Max_cycle;Signal;HPM_P1;HPM_P2
2021/06/18 00:00:21;;;;;;;10.75;6.38;;;;;;;24.66;60.91;100038.19;5033158;28;20387;-77
2021/06/18 00:02:50;;;;;;;9.10;6.50;;;;;;;24.66;60.71;100048.78;5033466;28;20053;-77
2021/06/18 00:05:18;;;;;;;17.35;6.80;;;;;;;24.62;60.97;100045.94;5033707;28;20060;-77
2021/06/18 00:07:46;;;;;;;8.90;6.80;;;;;;;24.59;60.75;100040.28;5033004;28;20049;-77
2021/06/18 00:10:16;;;;;;;9.32;7.00;;;;;;;24.51;61.28;100042.41;5033062;28;20045;-77
2021/06/18 00:12:44;;;;;;;8.88;7.30;;;;;;;24.46;61.65;100034.28;5033241;28;20057;-77
2021/06/18 00:15:13;;;;;;;11.38;7.25;;;;;;;24.44;61.62;100037.56;5033352;28;20387;-77
2021/06/18 00:17:41;;;;;;;10.88;7.13;;;;;;;24.42;61.82;100044.88;5033497;28;20049;-77
2021/06/18 00:20:11;;;;;;;11.30;6.97;;;;;;;24.40;62.02;100042.47;5032833;28;20046;-77
2021/06/18 00:22:40;;;;;;;10.23;6.75;;;;;;;24.35;62.04;100040.06;5032616;28;20479;-77
2021/06/18 00:25:08;;;;;;;9.85;6.80;;;;;;;24.33;62.06;100041.72;5031983;28;20525;-77
2021/06/18 00:27:36;;;;;;;12.35;6.85;;;;;;;24.29;62.25;100042.53;5033571;28;20617;-77
2021/06/18 00:30:04;;;;;;;9.07;7.40;;;;;;;24.27;62.55;100038.50;5032495;28;20060;-77
2021/06/18 00:32:31;;;;;;;8.07;6.78;;;;;;;24.24;62.44;100036.50;5033054;28;20054;-77
2021/06/18 00:34:58;;;;;;;12.02;7.00;;;;;;;24.21;62.85;100031.63;5035239;28;20490;-77
2021/06/18 00:37:27;;;;;;;7.05;6.43;;;;;;;24.21;62.58;100025.94;5036431;28;20386;-77
2021/06/18 00:39:55;;;;;;;11.43;7.18;;;;;;;24.19;62.85;100025.56;5036144;28;20374;-77
2021/06/18 00:42:22;;;;;;;7.50;6.80;;;;;;;24.15;62.60;100021.91;5036543;28;20057;-77
2021/06/18 00:44:50;;;;;;;8.70;7.40;;;;;;;24.09;62.98;100015.88;5036296;28;20045;-77
2021/06/18 00:47:21;;;;;;;8.73;7.00;;;;;;;24.07;63.09;100024.03;5036763;28;20053;-77
2021/06/18 00:49:48;;;;;;;10.05;7.45;;;;;;;24.02;63.49;100015.94;5036288;28;20382;-76
2021/06/18 00:52:17;;;;;;;19.02;8.27;;;;;;;24.00;63.73;100018.38;5035577;28;20062;-77
2021/06/18 00:54:46;;;;;;;10.75;7.05;;;;;;;24.00;63.31;100018.38;5036229;28;20052;-77
2021/06/18 00:57:14;;;;;;;10.10;7.70;;;;;;;24.02;63.44;100015.94;5036385;28;20045;-77
2021/06/18 00:59:42;;;;;;;10.20;7.47;;;;;;;24.01;63.27;100017.16;5036025;28;20050;-77
2021/06/18 01:02:09;;;;;;;9.75;7.60;;;;;;;24.00;63.18;100001.31;5036359;28;20057;-77
2021/06/18 01:04:38;;;;;;;12.88;7.97;;;;;;;23.95;63.30;100004.63;5036295;28;20061;-77
2021/06/18 01:07:09;;;;;;;10.20;7.57;;;;;;;23.89;63.47;100007.88;5035651;28;20049;-77
2021/06/18 01:09:48;;;;;;;9.82;7.70;;;;;;;23.90;63.17;100003.81;5016762;28;20053;-77
2021/06/18 01:12:20;;;;;;;10.85;7.60;;;;;;;23.88;63.32;99997.75;5016424;28;20061;-77
2021/06/18 01:14:59;;;;;;;11.57;7.93;;;;;;;23.86;63.71;100005.88;5016177;28;20072;-77
2021/06/18 01:17:34;;;;;;;8.63;7.72;;;;;;;23.83;63.69;100003.88;5015373;28;20400;-77
2021/06/18 01:20:30;;;;;;;9.60;7.68;;;;;;;23.80;63.70;100009.59;5016188;28;20054;-77
2021/06/18 01:23:00;;;;;;;8.38;7.57;;;;;;;23.77;63.97;100005.56;5016051;28;20492;-77
2021/06/18 01:25:41;;;;;;;9.35;7.80;;;;;;;23.75;63.86;100007.97;5015852;28;20503;-77
2021/06/18 01:28:37;;;;;;;8.40;6.72;;;;;;;23.70;63.80;100000.66;5016315;28;20054;-77
2021/06/18 01:31:05;;;;;;;9.45;7.45;;;;;;;23.66;63.57;100004.75;5015694;28;20046;-76
2021/06/18 01:33:36;;;;;;;10.30;8.07;;;;;;;23.62;63.77;100009.66;5015642;28;20068;-77
2021/06/18 01:36:08;;;;;;;10.18;8.18;;;;;;;23.58;63.92;100003.19;5015978;28;20407;-77
2021/06/18 01:38:39;;;;;;;12.93;9.43;;;;;;;23.58;63.58;99997.50;5015123;28;20117;-77
2021/06/18 01:41:12;;;;;;;11.25;8.70;;;;;;;23.54;63.87;99989.00;5015561;28;20396;-77
2021/06/18 01:43:44;;;;;;;10.68;9.18;;;;;;;23.48;64.11;99988.63;5015104;28;20045;-77
2021/06/18 01:46:14;;;;;;;11.38;8.65;;;;;;;23.46;64.15;99988.22;5015045;28;20058;-77
2021/06/18 01:48:44;;;;;;;11.40;8.40;;;;;;;23.42;64.32;99984.59;5015184;28;20065;-77
2021/06/18 01:51:12;;;;;;;11.85;10.00;;;;;;;23.38;64.60;99992.34;5015261;28;20054;-76
2021/06/18 01:53:43;;;;;;;10.90;8.90;;;;;;;23.33;64.73;99989.09;5015307;28;20499;-77
2021/06/18 01:56:15;;;;;;;11.02;8.55;;;;;;;23.28;64.84;99981.81;5015098;28;20053;-77
2021/06/18 01:58:47;;;;;;;10.63;8.77;;;;;;;23.27;64.33;99975.34;5015150;28;20053;-77
2021/06/18 02:01:15;;;;;;;13.38;9.20;;;;;;;23.27;64.47;99977.38;5015490;28;20407;-77
2021/06/18 02:03:45;;;;;;;10.57;9.48;;;;;;;23.24;64.65;99966.81;5015522;28;20054;-77
2021/06/18 02:06:14;;;;;;;13.10;9.70;;;;;;;23.17;64.71;99966.88;5015196;28;20611;-77
2021/06/18 02:08:43;;;;;;;;;;;;;;;23.09;64.55;99961.19;5028054;28;20410;-77
2021/06/18 02:11:11;;;;;;;10.07;9.07;;;;;;;23.04;65.35;99961.66;5035157;28;19921;-77
2021/06/18 02:13:39;;;;;;;10.95;9.50;;;;;;;22.98;65.53;99953.94;5035239;28;20348;-77
2021/06/18 02:16:09;;;;;;;11.02;9.43;;;;;;;22.93;65.72;99946.66;5035218;28;20053;-77
2021/06/18 02:18:38;;;;;;;13.15;9.48;;;;;;;22.88;65.80;99947.06;5034796;28;20050;-77
2021/06/18 02:21:06;;;;;;;11.25;9.15;;;;;;;22.85;65.70;99950.75;5034903;28;20486;-77
2021/06/18 02:23:35;;;;;;;11.25;9.77;;;;;;;22.81;66.04;99947.09;5034295;28;20056;-77
2021/06/18 02:26:05;;;;;;;12.30;10.77;;;;;;;22.74;66.66;99952.78;5034830;28;20050;-77
2021/06/18 02:28:33;;;;;;;12.90;10.32;;;;;;;22.70;66.73;99953.63;5034756;28;20053;-78
2021/06/18 02:31:03;;;;;;;13.73;10.02;;;;;;;22.69;66.67;99962.53;5034578;28;20386;-77
2021/06/18 02:33:32;;;;;;;12.90;10.13;;;;;;;22.66;66.55;99967.03;5034097;28;20429;-77
2021/06/18 02:35:59;;;;;;;12.30;10.95;;;;;;;22.63;66.71;99959.31;5034577;28;20053;-77
2021/06/18 02:38:26;;;;;;;15.70;9.95;;;;;;;22.60;66.66;99968.66;5034558;28;20076;-77
2021/06/18 02:40:53;;;;;;;12.35;10.63;;;;;;;22.57;66.67;99969.47;5034795;28;20479;-77
2021/06/18 02:43:31;;;;;;;12.05;10.02;;;;;;;22.58;66.37;99968.25;5035201;28;20407;-77
2021/06/18 02:45:59;;;;;;;14.85;10.48;;;;;;;22.56;66.54;99976.38;5034520;28;20478;-77
2021/06/18 02:48:31;;;;;;;16.08;10.35;;;;;;;22.54;66.69;99984.47;5034515;28;20056;-77
2021/06/18 02:51:05;;;;;;;13.90;10.27;;;;;;;22.52;66.52;99986.91;5033552;28;20136;-77
2021/06/18 02:53:40;;;;;;;12.40;10.48;;;;;;;22.50;66.63;99978.00;5034205;28;20057;-77
2021/06/18 02:56:14;;;;;;;13.07;9.60;;;;;;;22.47;66.68;99967.47;5033882;28;20069;-77
2021/06/18 02:58:45;;;;;;;11.02;9.68;;;;;;;22.44;66.71;99959.75;5034467;28;20060;-77
2021/06/18 03:01:16;;;;;;;15.00;10.10;;;;;;;22.43;66.82;99956.13;5034539;28;20470;-77
2021/06/18 03:03:45;;;;;;;12.40;10.57;;;;;;;22.40;67.03;99944.78;5034301;28;20079;-77
2021/06/18 03:06:19;;;;;;;15.77;10.85;;;;;;;22.35;67.27;99946.00;5033674;28;20068;-77
2021/06/18 03:08:53;;;;;;;12.50;9.25;;;;;;;22.31;67.38;99941.56;5033717;28;20057;-77
2021/06/18 03:11:22;;;;;;;12.63;10.05;;;;;;;22.26;67.57;99937.91;5034295;28;20045;-77
2021/06/18 03:13:52;;;;;;;14.02;10.25;;;;;;;22.24;67.92;99943.19;5034082;28;20057;-77
2021/06/18 03:16:21;;;;;;;15.10;10.85;;;;;;;22.21;68.38;99952.47;5034069;28;20057;-77
2021/06/18 03:18:51;;;;;;;13.52;11.68;;;;;;;22.15;68.57;99948.41;5033573;28;20049;-77
2021/06/18 03:21:21;;;;;;;17.67;11.82;;;;;;;22.13;68.54;99952.88;5034194;28;20387;-77
2021/06/18 03:23:50;;;;;;;12.80;10.15;;;;;;;22.14;68.25;99946.00;5033983;28;20052;-77
2021/06/18 03:26:18;;;;;;;11.83;10.63;;;;;;;22.15;68.21;99942.75;5033729;28;20470;-77
2021/06/18 03:28:46;;;;;;;16.20;11.13;;;;;;;22.15;68.15;99947.59;5032842;28;20060;-77
2021/06/18 03:31:17;;;;;;;16.05;11.07;;;;;;;22.16;67.97;99944.38;5033467;28;20479;-77
2021/06/18 03:33:46;;;;;;;16.70;12.05;;;;;;;22.20;68.09;99942.34;5033684;28;20053;-77
2021/06/18 03:36:14;;;;;;;;;;;;;;;22.20;67.65;99944.38;5035069;28;20049;-77
2021/06/18 03:38:43;;;;;;;13.00;10.50;;;;;;;22.20;67.55;99939.50;5033610;28;19928;-77
2021/06/18 03:41:10;;;;;;;;;;;;;;;22.17;67.73;99943.13;5033950;28;20053;-77
2021/06/18 03:43:38;;;;;;;14.65;11.48;;;;;;;22.17;68.01;99945.97;5033699;28;19928;-77
2021/06/18 03:46:08;;;;;;;12.82;11.15;;;;;;;22.18;68.03;99941.94;5033315;28;20054;-77
2021/06/18 03:48:36;;;;;;;;;;;;;;;22.17;67.88;99940.31;5033682;28;20057;-77
2021/06/18 03:51:05;;;;;;;16.77;12.18;;;;;;;22.20;67.92;99942.34;5032813;28;19928;-77
2021/06/18 03:53:33;;;;;;;13.65;11.60;;;;;;;22.23;67.80;99944.38;5033583;28;20049;-77
2021/06/18 03:56:02;;;;;;;14.05;12.60;;;;;;;22.28;67.73;99957.38;5033055;28;20080;-77
2021/06/18 03:58:31;;;;;;;14.93;11.85;;;;;;;22.28;67.74;99951.69;5033030;28;20057;-77
2021/06/18 04:01:00;;;;;;;17.88;14.02;;;;;;;22.28;67.64;99961.00;5033129;28;20056;-77
2021/06/18 04:03:28;;;;;;;19.42;12.98;;;;;;;22.31;67.87;99961.41;5033001;28;20046;-77
2021/06/18 04:06:00;;;;;;;15.63;12.00;;;;;;;22.35;67.64;99965.06;5032672;28;20061;-77
2021/06/18 04:08:28;;;;;;;15.82;12.20;;;;;;;22.35;67.59;99967.91;5032779;28;20525;-77
2021/06/18 04:10:56;;;;;;;16.55;12.30;;;;;;;22.34;67.59;99961.38;5036578;28;20076;-77
2021/06/18 04:13:26;;;;;;;17.65;10.93;;;;;;;22.37;67.45;99966.25;5036908;28;20053;-77
2021/06/18 04:15:55;;;;;;;13.20;11.43;;;;;;;22.40;67.16;99965.44;5037309;28;20049;-77
2021/06/18 04:18:24;;;;;;;14.75;11.30;;;;;;;22.40;67.52;99973.16;5036354;28;20050;-77
2021/06/18 04:20:53;;;;;;;13.88;11.15;;;;;;;22.48;67.36;99963.41;5036427;28;20045;-77
2021/06/18 04:23:28;;;;;;;14.27;11.33;;;;;;;22.54;67.30;99960.97;5036730;28;20057;-77
2021/06/18 04:25:55;;;;;;;15.98;11.68;;;;;;;22.59;67.25;99960.53;5036837;28;20058;-77
2021/06/18 04:28:25;;;;;;;13.73;11.57;;;;;;;22.67;66.94;99973.50;5036452;28;20399;-77
2021/06/18 04:30:52;;;;;;;;;;;;;;;22.67;66.81;99962.94;5037065;28;20057;-77
2021/06/18 04:33:19;;;;;;;12.73;11.18;;;;;;;22.74;66.72;99959.31;5036715;28;19921;-77
2021/06/18 04:35:46;;;;;;;13.15;10.90;;;;;;;22.79;66.82;99963.75;5036583;28;20053;-77
2021/06/18 04:38:14;;;;;;;13.30;11.77;;;;;;;22.86;66.78;99963.72;5036337;28;20049;-77
2021/06/18 04:40:41;;;;;;;14.90;11.10;;;;;;;22.89;67.03;99960.06;5036724;28;20061;-77
2021/06/18 04:43:09;;;;;;;14.60;11.45;;;;;;;22.92;66.95;99955.59;5036020;28;20054;-77
2021/06/18 04:45:38;;;;;;;14.18;12.45;;;;;;;22.97;66.92;99952.31;5036316;28;20060;-77
2021/06/18 04:48:07;;;;;;;17.65;13.13;;;;;;;23.03;67.06;99956.38;5036024;28;20056;-77
2021/06/18 04:50:35;;;;;;;14.48;12.57;;;;;;;23.08;67.08;99951.09;5035570;28;20049;-77
2021/06/18 04:53:02;;;;;;;13.95;12.50;;;;;;;23.15;66.97;99958.75;5035769;28;20050;-77
2021/06/18 04:55:29;;;;;;;16.90;13.32;;;;;;;23.24;66.57;99961.16;5035994;28;20045;-77
2021/06/18 04:57:57;;;;;;;14.70;12.55;;;;;;;23.28;66.61;99968.41;5035832;28;20057;-77
2021/06/18 05:00:25;;;;;;;16.23;12.15;;;;;;;23.35;66.54;99961.91;5035839;28;20049;-77
2021/06/18 05:02:54;;;;;;;14.45;12.90;;;;;;;23.49;66.34;99966.69;5035794;28;20117;-77
2021/06/18 05:05:21;;;;;;;15.75;12.93;;;;;;;23.55;66.37;99973.56;5036362;28;20064;-77
2021/06/18 05:07:53;;;;;;;15.02;13.43;;;;;;;23.59;66.75;99977.19;5035808;28;20072;-77
2021/06/18 05:10:20;;;;;;;14.90;12.73;;;;;;;23.67;66.21;99975.91;5039209;28;20065;-78
2021/06/18 05:12:48;;;;;;;14.60;12.73;;;;;;;23.75;66.24;99973.84;5027576;28;20049;-77
2021/06/18 05:15:16;;;;;;;14.68;13.02;;;;;;;23.87;65.95;99979.03;5037002;28;20069;-78
2021/06/18 05:17:44;;;;;;;19.25;14.25;;;;;;;23.95;65.76;99976.16;5034821;28;20041;-78
2021/06/18 05:20:14;;;;;;;15.63;14.02;;;;;;;24.02;65.57;99981.78;5030608;28;20065;-78
2021/06/18 05:22:41;;;;;;;16.05;14.38;;;;;;;24.07;65.11;99978.50;5030567;28;20053;-77
2021/06/18 05:25:12;;;;;;;20.50;14.85;;;;;;;24.13;65.24;99971.16;5029904;28;20383;-79
2021/06/18 05:27:40;;;;;;;16.45;14.40;;;;;;;24.19;65.31;99978.00;5028975;28;20483;-79
2021/06/18 05:30:09;;;;;;;15.10;12.30;;;;;;;24.25;64.70;99972.66;5036015;28;20041;-79
2021/06/18 05:32:36;;;;;;;15.48;13.35;;;;;;;24.31;64.74;99966.06;5033640;28;20049;-77
2021/06/18 05:35:04;;;;;;;18.67;13.95;;;;;;;24.47;64.23;99968.38;5034140;28;20060;-77
2021/06/18 05:37:33;;;;;;;21.85;14.48;;;;;;;24.64;63.73;99969.44;5035420;28;20064;-78
2021/06/18 05:40:00;;;;;;;17.65;13.95;;;;;;;24.70;63.79;99976.31;5034097;28;20076;-78
2021/06/18 05:42:27;;;;;;;14.60;13.30;;;;;;;24.86;63.15;99972.03;5018997;28;20050;-79
2021/06/18 05:44:55;;;;;;;15.65;13.88;;;;;;;24.97;62.60;99971.91;5021470;28;20058;-78
2021/06/18 05:47:22;;;;;;;18.30;13.90;;;;;;;25.06;62.79;99970.19;5037427;28;20049;-78
2021/06/18 05:49:49;;;;;;;18.17;13.07;;;;;;;25.17;62.09;99969.25;5038402;28;20060;-78
2021/06/18 05:52:16;;;;;;;19.27;14.50;;;;;;;25.29;61.44;99965.84;5030323;28;20422;-79
2021/06/18 05:54:45;;;;;;;18.83;13.35;;;;;;;25.41;61.21;99962.44;5038654;28;20045;-78
2021/06/18 05:57:12;;;;;;;17.40;15.02;;;;;;;25.52;60.82;99974.47;5039053;28;20058;-78
2021/06/18 05:59:42;;;;;;;19.70;14.40;;;;;;;25.58;60.75;99979.72;5039594;28;20131;-78
2021/06/18 06:02:09;;;;;;;16.38;14.27;;;;;;;25.64;60.37;99977.97;5035663;28;20414;-78
2021/06/18 06:04:37;;;;;;;15.02;13.00;;;;;;;25.72;60.30;99971.75;5030071;28;20053;-79
2021/06/18 06:07:07;;;;;;;16.15;14.55;;;;;;;25.79;60.42;99973.69;5038096;28;20475;-78
2021/06/18 06:09:34;;;;;;;15.48;13.05;;;;;;;25.86;60.18;99970.72;5039880;28;20493;-78
2021/06/18 06:12:03;;;;;;;15.70;13.80;;;;;;;26.00;59.70;99966.88;5039399;28;20057;-78
2021/06/18 06:14:30;;;;;;;15.80;14.00;;;;;;;26.04;59.52;99967.63;5039360;28;20049;-78
2021/06/18 06:16:58;;;;;;;14.35;12.95;;;;;;;26.22;59.31;99975.06;5038921;28;20391;-78
2021/06/18 06:19:27;;;;;;;14.63;13.07;;;;;;;26.29;58.90;99958.63;5034327;28;20080;-82
2021/06/18 06:21:54;;;;;;;17.15;13.60;;;;;;;26.38;58.63;99965.81;5040517;28;20061;-83
2021/06/18 06:24:22;;;;;;;14.00;12.70;;;;;;;26.40;59.00;99964.13;5039864;28;20053;-83
2021/06/18 06:26:49;;;;;;;13.57;12.23;;;;;;;26.52;58.84;99971.25;5038453;28;20060;-80
2021/06/18 06:29:18;;;;;;;13.27;11.88;;;;;;;26.64;59.27;99972.69;5038165;28;20054;-80
2021/06/18 06:31:45;;;;;;;17.40;12.70;;;;;;;26.73;58.88;99964.34;5038796;28;20402;-80
2021/06/18 06:34:12;;;;;;;15.50;13.32;;;;;;;26.79;58.42;99961.78;5038516;28;20053;-79
2021/06/18 06:36:40;;;;;;;12.45;11.25;;;;;;;26.85;58.51;99966.56;5038404;28;20049;-78
2021/06/18 06:39:07;;;;;;;16.17;12.15;;;;;;;27.02;58.34;99967.44;5034933;28;20061;-81
2021/06/18 06:41:35;;;;;;;13.95;12.20;;;;;;;27.09;58.33;99970.16;5035084;28;20049;-79
2021/06/18 06:44:02;;;;;;;14.30;12.68;;;;;;;27.20;58.67;99964.22;5036574;28;20053;-79
2021/06/18 06:46:31;;;;;;;13.40;12.10;;;;;;;27.32;58.51;99959.91;5036522;28;20049;-79
2021/06/18 06:48:58;;;;;;;17.75;12.82;;;;;;;27.39;58.16;99956.09;5032215;28;20435;-80
2021/06/18 06:51:26;;;;;;;14.75;12.88;;;;;;;27.47;58.17;99958.34;5037743;28;20057;-78
2021/06/18 06:53:53;;;;;;;13.80;12.40;;;;;;;27.62;57.71;99960.88;5036710;28;20050;-79
2021/06/18 06:56:20;;;;;;;13.38;12.18;;;;;;;27.69;57.08;99952.91;5037351;28;20052;-78
2021/06/18 06:58:48;;;;;;;13.27;11.73;;;;;;;27.77;56.44;99952.75;5037416;28;20053;-81
2021/06/18 07:01:15;;;;;;;13.65;11.23;;;;;;;27.87;56.58;99954.59;5038131;28;20054;-80
2021/06/18 07:03:45;;;;;;;15.85;11.48;;;;;;;28.02;57.39;99966.47;5027955;28;20395;-79
2021/06/18 07:06:12;;;;;;;13.10;11.63;;;;;;;28.15;55.71;99970.22;5019163;28;20054;-78
2021/06/18 07:08:40;;;;;;;18.20;11.52;;;;;;;28.26;55.80;99972.81;5022300;28;20062;-80
2021/06/18 07:11:08;;;;;;;14.93;12.27;;;;;;;28.39;55.34;99975.75;5037571;28;20061;-79
2021/06/18 07:13:35;;;;;;;14.77;11.48;;;;;;;28.50;55.18;99967.72;5034999;28;20133;-79
2021/06/18 07:16:02;;;;;;;12.75;10.68;;;;;;;28.64;55.15;99970.22;5037075;28;20068;-78
2021/06/18 07:18:30;;;;;;;11.35;10.18;;;;;;;28.78;54.46;99969.00;5035923;28;20049;-79
2021/06/18 07:20:58;;;;;;;15.52;11.40;;;;;;;28.92;53.77;99970.66;5037692;28;20057;-78
2021/06/18 07:23:31;;;;;;;13.93;10.88;;;;;;;29.08;53.61;99970.59;5030515;28;20478;-78
2021/06/18 07:25:59;;;;;;;13.60;11.20;;;;;;;29.26;52.76;99977.91;5015944;28;20491;-79
2021/06/18 07:28:26;;;;;;;13.63;10.80;;;;;;;29.40;53.10;99976.63;5023311;28;20048;-81
2021/06/18 07:30:53;;;;;;;11.32;10.23;;;;;;;29.54;52.89;99982.75;5036366;28;20056;-79
2021/06/18 07:33:21;;;;;;;13.70;11.02;;;;;;;29.65;52.12;99981.59;5034231;28;20052;-79
2021/06/18 07:35:48;;;;;;;11.23;10.05;;;;;;;29.82;51.57;99986.03;5035639;28;20049;-78
2021/06/18 07:38:19;;;;;;;10.60;9.60;;;;;;;29.97;51.29;99991.31;5022730;28;20045;-78
2021/06/18 07:40:47;;;;;;;13.77;10.30;;;;;;;30.08;50.52;99983.13;5033425;28;20049;-78
2021/06/18 07:43:14;;;;;;;12.73;9.45;;;;;;;30.25;49.79;99987.47;5031982;28;20408;-78
2021/06/18 07:45:41;;;;;;;17.48;9.68;;;;;;;30.37;49.92;99991.63;5026453;28;20061;-78
2021/06/18 07:48:10;;;;;;;11.82;9.68;;;;;;;30.52;48.75;100001.34;5031994;28;20049;-78
2021/06/18 07:50:38;;;;;;;12.80;9.43;;;;;;;30.65;48.23;100001.31;5028358;28;20371;-78
2021/06/18 07:53:05;;;;;;;12.82;8.73;;;;;;;30.82;45.98;100004.00;5031565;28;20411;-78
2021/06/18 07:55:34;;;;;;;13.25;8.27;;;;;;;30.99;45.96;99991.06;5016569;28;20058;-78
2021/06/18 07:58:02;;;;;;;12.02;7.88;;;;;;;31.50;43.48;99992.91;5031907;28;20049;-78
2021/06/18 08:00:29;;;;;;;11.05;7.70;;;;;;;32.40;42.20;100006.53;5033757;28;20507;-77
2021/06/18 08:02:58;;;;;;;9.93;7.38;;;;;;;33.35;38.57;99989.13;5031211;28;20061;-79
2021/06/18 08:05:25;;;;;;;;;;;;;;;34.21;38.35;99995.75;5019983;28;20056;-79
2021/06/18 08:07:52;;;;;;;10.45;7.13;;;;;;;34.84;35.19;99992.09;5026782;28;19933;-78
2021/06/18 08:10:21;;;;;;;12.05;7.47;;;;;;;35.31;34.86;99997.00;5028449;28;20387;-77
2021/06/18 08:12:50;;;;;;;12.35;8.43;;;;;;;36.02;33.43;99984.78;5030129;28;20064;-79
2021/06/18 08:15:17;;;;;;;10.43;7.82;;;;;;;36.64;32.10;99995.19;5032947;28;20057;-77
2021/06/18 08:17:46;;;;;;;9.00;7.18;;;;;;;37.30;31.36;99990.69;5031617;28;20054;-78
2021/06/18 08:20:16;;;;;;;10.57;7.43;;;;;;;38.02;30.66;99977.28;5034487;28;20061;-79
2021/06/18 08:22:43;;;;;;;9.95;7.25;;;;;;;38.71;28.96;99977.19;5032529;28;20235;-79
2021/06/18 08:25:11;;;;;;;10.93;7.25;;;;;;;39.16;28.70;99980.25;5032073;28;20050;-77
2021/06/18 08:27:38;;;;;;;11.13;7.35;;;;;;;40.01;26.88;99976.63;5029584;28;21149;-77
2021/06/18 08:30:09;;;;;;;8.63;7.55;;;;;;;40.69;26.31;99983.84;5024842;28;20057;-78
2021/06/18 08:32:37;;;;;;;8.48;6.80;;;;;;;41.39;25.45;99980.81;5013158;28;20057;-78
2021/06/18 08:35:05;;;;;;;9.73;6.90;;;;;;;41.61;25.60;99990.78;5030664;28;20064;-78
2021/06/18 08:37:33;;;;;;;10.30;7.18;;;;;;;42.37;23.42;99995.63;5030889;28;20049;-80
2021/06/18 08:40:00;;;;;;;7.85;7.07;;;;;;;42.93;21.91;99984.59;5031820;28;20058;-79
2021/06/18 08:42:29;;;;;;;8.13;7.22;;;;;;;43.36;22.44;99981.56;5033256;28;20487;-79
2021/06/18 08:44:56;;;;;;;7.68;5.78;;;;;;;43.89;20.83;99986.84;5031024;28;20056;-79
2021/06/18 08:47:25;;;;;;;7.35;5.93;;;;;;;44.65;20.48;99986.47;5035750;28;20057;-81
2021/06/18 08:49:52;;;;;;;7.68;5.68;;;;;;;45.23;19.37;99986.81;5030865;28;20056;-78
2021/06/18 08:52:20;;;;;;;8.05;6.25;;;;;;;45.73;17.92;99981.88;5033072;28;20065;-79
2021/06/18 08:54:47;;;;;;;;;;;;;;;45.92;17.54;99988.28;5033103;28;20050;-76
2021/06/18 08:57:18;;;;;;;8.38;5.57;;;;;;;46.01;17.73;99983.25;5034158;28;19921;-78
2021/06/18 08:59:47;;;;;;;6.63;5.75;;;;;;;46.25;17.38;99985.81;5036001;28;20053;-79
2021/06/18 09:02:15;;;;;;;6.00;5.13;;;;;;;46.84;16.69;99978.53;5035822;28;20057;-80
2021/06/18 09:05:08;;;;;;;6.47;4.82;;;;;;;47.12;16.28;99992.38;5031730;28;20053;-78
2021/06/18 09:07:57;;;;;;;8.02;4.35;;;;;;;47.60;15.38;99986.06;5036422;28;20061;-79
2021/06/18 09:10:27;;;;;;;6.03;4.70;;;;;;;48.06;15.53;99986.06;5033898;28;20509;-76
2021/06/18 09:13:16;;;;;;;7.15;4.70;;;;;;;48.63;14.67;99985.59;5033206;28;20041;-77
2021/06/18 09:15:49;;;;;;;8.13;4.32;;;;;;;48.98;13.73;99982.88;5031498;28;20049;-76
2021/06/18 09:18:34;;;;;;;8.32;5.28;;;;;;;49.00;14.02;99980.16;5032124;28;20509;-77
2021/06/18 09:21:23;;;;;;;6.85;4.72;;;;;;;49.74;13.31;99984.63;5030572;28;20049;-76
2021/06/18 09:23:53;;;;;;;8.75;4.45;;;;;;;50.08;12.87;99976.44;5034998;28;20049;-79
2021/06/18 09:26:34;;;;;;;7.25;4.40;;;;;;;50.70;12.55;99971.44;5038646;28;20057;-78
2021/06/18 09:29:10;;;;;;;9.00;4.55;;;;;;;50.96;11.71;99978.03;5033965;28;20049;-76
2021/06/18 09:31:49;;;;;;;6.03;4.20;;;;;;;51.34;11.49;99974.53;5033179;28;20057;-78
2021/06/18 09:34:30;;;;;;;7.50;4.00;;;;;;;51.86;11.82;99969.78;5026578;28;20049;-79
2021/06/18 09:37:22;;;;;;;6.70;4.22;;;;;;;52.25;10.89;99970.69;5034882;28;20076;-78
2021/06/18 09:40:12;;;;;;;5.82;4.00;;;;;;;52.90;10.02;99980.06;5034769;28;20057;-77
2021/06/18 09:42:58;;;;;;;5.45;4.10;;;;;;;53.17;9.76;99973.16;5029783;28;20395;-78
2021/06/18 09:45:28;;;;;;;7.90;4.53;;;;;;;53.52;9.16;99973.53;5034930;28;20057;-77
2021/06/18 09:48:10;;;;;;;8.75;4.38;;;;;;;54.13;9.59;99977.16;5033113;28;20068;-78
2021/06/18 09:50:39;;;;;;;7.22;4.38;;;;;;;54.68;8.18;99983.16;5031901;28;20329;-78
2021/06/18 09:53:18;;;;;;;6.07;3.80;;;;;;;54.61;8.37;99984.19;5036741;28;20054;-78
2021/06/18 09:55:47;;;;;;;7.85;3.72;;;;;;;53.74;8.16;99965.41;5032920;28;20053;-77
2021/06/18 09:58:35;;;;;;;8.02;5.20;;;;;;;54.13;8.51;99954.09;5032123;28;20060;-78
2021/06/18 10:01:16;;;;;;;9.82;4.78;;;;;;;54.00;8.22;99960.59;5036595;28;20053;-78
2021/06/18 10:04:04;;;;;;;7.22;3.97;;;;;;;52.88;8.57;99965.06;5019629;28;20061;-79
2021/06/18 10:06:36;;;;;;;7.60;3.72;;;;;;;52.78;8.88;99965.06;5034611;28;20060;-78
2021/06/18 10:09:11;;;;;;;8.35;3.83;;;;;;;51.08;9.81;99975.31;5035790;28;20061;-79
2021/06/18 10:11:42;;;;;;;7.03;3.72;;;;;;;48.90;11.06;99982.13;5033369;28;20467;-77
2021/06/18 10:14:10;;;;;;;6.53;3.50;;;;;;;46.25;13.88;99977.00;5027168;28;20049;-76
2021/06/18 10:16:39;;;;;;;6.78;3.75;;;;;;;45.23;14.86;99975.81;5028109;28;20045;-79
2021/06/18 10:19:07;;;;;;;10.68;4.82;;;;;;;43.83;16.27;99976.53;5024633;28;20049;-79
2021/06/18 10:21:47;;;;;;;8.52;3.97;;;;;;;42.15;17.90;99970.34;5031208;28;20047;-78
2021/06/18 10:24:16;;;;;;;10.02;4.57;;;;;;;41.49;18.57;99967.44;5028450;28;20061;-80
2021/06/18 10:26:50;;;;;;;7.80;4.60;;;;;;;40.73;19.28;99949.34;5029804;28;20446;-82
2021/06/18 10:29:31;;;;;;;7.78;4.45;;;;;;;40.10;20.17;99961.72;5033591;28;20060;-78
2021/06/18 10:31:59;;;;;;;8.73;4.20;;;;;;;39.60;20.62;99968.38;5034652;28;20537;-79
2021/06/18 10:34:39;;;;;;;7.55;3.95;;;;;;;39.01;20.80;99967.25;5034811;28;20061;-79
2021/06/18 10:37:21;;;;;;;6.03;3.90;;;;;;;38.64;22.09;99966.06;5033802;28;20064;-79
2021/06/18 10:39:54;;;;;;;6.93;4.00;;;;;;;38.14;22.77;99954.94;5032502;28;20053;-79
2021/06/18 10:42:23;;;;;;;7.63;4.47;;;;;;;37.89;23.65;99959.50;5034831;28;20076;-79
2021/06/18 10:44:52;;;;;;;9.35;4.82;;;;;;;37.54;24.26;99955.50;5033463;28;20045;-79
2021/06/18 10:47:58;;;;;;;9.40;4.25;;;;;;;37.10;24.70;99956.69;5036090;28;20058;-78
2021/06/18 10:50:48;;;;;;;7.93;4.55;;;;;;;36.85;24.69;99951.63;5036013;28;20410;-78
2021/06/18 10:53:20;;;;;;;7.20;3.90;;;;;;;36.57;24.60;99952.06;5035802;28;20064;-78
2021/06/18 10:55:50;;;;;;;7.15;4.07;;;;;;;36.33;24.66;99949.38;5029056;28;20110;-79
2021/06/18 10:58:17;;;;;;;9.43;4.00;;;;;;;36.20;24.43;99948.94;5035628;28;20518;-78
2021/06/18 11:00:45;;;;;;;7.70;3.80;;;;;;;36.10;24.62;99957.75;5034415;28;20057;-78
2021/06/18 11:03:15;;;;;;;8.95;4.03;;;;;;;35.96;24.60;99953.59;5035041;28;20057;-78
2021/06/18 11:05:46;;;;;;;11.25;4.35;;;;;;;35.93;25.74;99950.91;5035601;28;20052;-78
2021/06/18 11:08:26;;;;;;;7.60;3.97;;;;;;;35.82;24.85;99953.63;5034835;28;20521;-78
2021/06/18 11:11:00;;;;;;;10.85;4.35;;;;;;;35.83;25.83;99949.44;5035018;28;20045;-78
2021/06/18 11:13:28;;;;;;;8.07;4.03;;;;;;;35.83;25.89;99950.25;5035903;28;20068;-78
2021/06/18 11:15:56;;;;;;;10.68;4.10;;;;;;;35.84;25.26;99946.03;5032285;28;20049;-77
2021/06/18 11:18:36;;;;;;;8.60;3.70;;;;;;;35.86;25.74;99946.31;5031819;28;20434;-78
2021/06/18 11:21:07;;;;;;;6.15;3.70;;;;;;;35.92;25.77;99947.22;5031968;28;20064;-77
2021/06/18 11:23:38;;;;;;;8.43;3.47;;;;;;;35.97;25.33;99937.81;5031131;28;20057;-77
2021/06/18 11:26:10;;;;;;;7.85;3.80;;;;;;;36.07;25.37;99937.66;5032399;28;20045;-77
2021/06/18 11:28:47;;;;;;;8.70;3.63;;;;;;;36.13;25.83;99941.44;5032511;28;20061;-78
2021/06/18 11:31:17;;;;;;;9.85;3.85;;;;;;;36.22;26.75;99952.94;5029650;28;20056;-77
2021/06/18 11:33:50;;;;;;;7.35;3.92;;;;;;;36.38;26.07;99945.78;5032167;28;20053;-79
2021/06/18 11:36:42;;;;;;;7.35;4.00;;;;;;;36.61;25.44;99943.16;5030855;28;20064;-77
2021/06/18 11:39:18;;;;;;;7.43;3.85;;;;;;;36.86;25.66;99935.81;5011801;28;20057;-78